Pewaukee, Wisconsin
Current Conditions -  °F | °C
As of 12:45 PM on Saturday 25 Oct 2014 (Local Time) from KUES Reporting Station
Clear Clear  
Wind Chill: 63°   Ceiling: Unl
Heat Index: 63°   Visibility: 10mi
Dew Point: 34°   Wind: 17mph
Humidity: 34%   Direction: 270°W
Pressure: 29.92"   Gusts: 28mph
Location:  43.08°N, 88.26°W
Report Text: KUES 251745Z 27015G24KT 10SM SKC 17/01 A2992
Loading
Personal Weather Stations






























Interactive Weather Map
Tropical Storm Tracking
New forecast layout! Learn more

10-Day Weather Forecast

Advertisements
Track Severe Weather on mobile